sensor_id;sensor_type;location;lat;lon;timestamp;temperature;humidity
439;DHT22;206;48.782;9.252;2022-12-29T00:01:45;8.40;49.60
439;DHT22;206;48.782;9.252;2022-12-29T00:04:12;8.50;49.30
439;DHT22;206;48.782;9.252;2022-12-29T00:06:38;8.50;49.10
439;DHT22;206;48.782;9.252;2022-12-29T00:09:04;8.50;49.00
439;DHT22;206;48.782;9.252;2022-12-29T00:11:29;8.50;48.90
439;DHT22;206;48.782;9.252;2022-12-29T00:13:55;8.60;48.40
439;DHT22;206;48.782;9.252;2022-12-29T00:16:44;8.70;47.80
439;DHT22;206;48.782;9.252;2022-12-29T00:19:11;8.70;49.00
439;DHT22;206;48.782;9.252;2022-12-29T00:21:57;8.70;47.60
439;DHT22;206;48.782;9.252;2022-12-29T00:24:43;8.70;47.70
439;DHT22;206;48.782;9.252;2022-12-29T00:27:28;8.80;47.80
439;DHT22;206;48.782;9.252;2022-12-29T00:30:15;8.80;47.50
439;DHT22;206;48.782;9.252;2022-12-29T00:33:00;8.80;47.70
439;DHT22;206;48.782;9.252;2022-12-29T00:35:50;8.90;47.50
439;DHT22;206;48.782;9.252;2022-12-29T00:38:18;8.90;47.30
439;DHT22;206;48.782;9.252;2022-12-29T00:41:02;8.80;47.30
439;DHT22;206;48.782;9.252;2022-12-29T00:43:46;8.80;47.20
439;DHT22;206;48.782;9.252;2022-12-29T00:46:30;8.80;47.60
439;DHT22;206;48.782;9.252;2022-12-29T00:48:56;8.80;47.50
439;DHT22;206;48.782;9.252;2022-12-29T00:51:40;8.80;47.80
439;DHT22;206;48.782;9.252;2022-12-29T00:54:06;8.80;47.90
439;DHT22;206;48.782;9.252;2022-12-29T00:56:31;8.80;48.00
439;DHT22;206;48.782;9.252;2022-12-29T00:59:04;8.80;47.80
439;DHT22;206;48.782;9.252;2022-12-29T01:01:30;8.90;47.70
439;DHT22;206;48.782;9.252;2022-12-29T01:03:56;8.90;47.30
439;DHT22;206;48.782;9.252;2022-12-29T01:06:23;8.90;47.50
439;DHT22;206;48.782;9.252;2022-12-29T01:08:48;8.90;47.80
439;DHT22;206;48.782;9.252;2022-12-29T01:11:37;8.90;47.80
439;DHT22;206;48.782;9.252;2022-12-29T01:14:04;8.90;47.80
439;DHT22;206;48.782;9.252;2022-12-29T01:16:29;8.90;47.90
439;DHT22;206;48.782;9.252;2022-12-29T01:18:55;8.90;47.70
439;DHT22;206;48.782;9.252;2022-12-29T01:21:21;8.90;48.10
439;DHT22;206;48.782;9.252;2022-12-29T01:23:46;8.80;48.50
439;DHT22;206;48.782;9.252;2022-12-29T01:26:14;8.80;48.30
439;DHT22;206;48.782;9.252;2022-12-29T01:28:41;8.90;48.10
439;DHT22;206;48.782;9.252;2022-12-29T01:31:12;8.80;48.20
439;DHT22;206;48.782;9.252;2022-12-29T01:33:39;8.80;48.20
439;DHT22;206;48.782;9.252;2022-12-29T01:36:06;8.90;47.50
439;DHT22;206;48.782;9.252;2022-12-29T01:38:33;8.90;47.80
439;DHT22;206;48.782;9.252;2022-12-29T01:40:58;9.00;47.30
439;DHT22;206;48.782;9.252;2022-12-29T01:43:42;9.00;47.50
439;DHT22;206;48.782;9.252;2022-12-29T01:46:36;9.00;46.90
439;DHT22;206;48.782;9.252;2022-12-29T01:49:23;9.10;47.00
439;DHT22;206;48.782;9.252;2022-12-29T01:51:58;9.00;47.60
439;DHT22;206;48.782;9.252;2022-12-29T01:54:32;8.90;47.60
439;DHT22;206;48.782;9.252;2022-12-29T01:57:03;9.00;48.10
439;DHT22;206;48.782;9.252;2022-12-29T01:59:33;9.00;48.20
439;DHT22;206;48.782;9.252;2022-12-29T02:02:00;8.90;48.10
439;DHT22;206;48.782;9.252;2022-12-29T02:04:26;8.90;48.60
439;DHT22;206;48.782;9.252;2022-12-29T02:07:05;8.90;48.60
439;DHT22;206;48.782;9.252;2022-12-29T02:09:32;8.90;48.60
439;DHT22;206;48.782;9.252;2022-12-29T02:11:58;9.00;48.30
439;DHT22;206;48.782;9.252;2022-12-29T02:14:24;9.10;48.30
439;DHT22;206;48.782;9.252;2022-12-29T02:17:11;9.10;47.00
439;DHT22;206;48.782;9.252;2022-12-29T02:20:00;9.20;47.00
439;DHT22;206;48.782;9.252;2022-12-29T02:31:29;9.40;45.70
439;DHT22;206;48.782;9.252;2022-12-29T02:37:03;9.50;45.30
439;DHT22;206;48.782;9.252;2022-12-29T02:40:03;9.40;45.40
439;DHT22;206;48.782;9.252;2022-12-29T02:42:43;9.50;45.10
439;DHT22;206;48.782;9.252;2022-12-29T02:45:20;9.50;45.10
439;DHT22;206;48.782;9.252;2022-12-29T02:47:54;9.50;45.30
439;DHT22;206;48.782;9.252;2022-12-29T02:50:38;9.50;44.70
439;DHT22;206;48.782;9.252;2022-12-29T02:53:13;9.50;44.30
439;DHT22;206;48.782;9.252;2022-12-29T02:55:48;9.60;44.30
439;DHT22;206;48.782;9.252;2022-12-29T02:58:21;9.70;44.40
439;DHT22;206;48.782;9.252;2022-12-29T03:09:10;10.00;41.30
439;DHT22;206;48.782;9.252;2022-12-29T03:11:59;10.00;41.20
439;DHT22;206;48.782;9.252;2022-12-29T03:14:46;10.00;41.00
439;DHT22;206;48.782;9.252;2022-12-29T03:17:56;10.10;40.60
439;DHT22;206;48.782;9.252;2022-12-29T03:20:32;10.10;40.40
439;DHT22;206;48.782;9.252;2022-12-29T03:23:03;10.10;40.60
439;DHT22;206;48.782;9.252;2022-12-29T03:25:32;10.00;40.60
439;DHT22;206;48.782;9.252;2022-12-29T03:28:03;10.00;40.40
439;DHT22;206;48.782;9.252;2022-12-29T03:30:32;10.10;40.60
439;DHT22;206;48.782;9.252;2022-12-29T03:33:04;10.10;40.30
439;DHT22;206;48.782;9.252;2022-12-29T03:35:35;10.10;39.90
439;DHT22;206;48.782;9.252;2022-12-29T03:38:33;10.10;40.00
439;DHT22;206;48.782;9.252;2022-12-29T03:41:03;10.20;39.50
439;DHT22;206;48.782;9.252;2022-12-29T03:43:30;10.20;39.30
439;DHT22;206;48.782;9.252;2022-12-29T03:45:56;10.20;39.00
439;DHT22;206;48.782;9.252;2022-12-29T03:48:21;10.30;39.10
439;DHT22;206;48.782;9.252;2022-12-29T03:50:47;10.30;39.10
439;DHT22;206;48.782;9.252;2022-12-29T03:53:13;10.40;39.20
439;DHT22;206;48.782;9.252;2022-12-29T03:55:38;10.50;38.40
439;DHT22;206;48.782;9.252;2022-12-29T03:58:04;10.50;38.30
439;DHT22;206;48.782;9.252;2022-12-29T04:00:30;10.60;37.90
439;DHT22;206;48.782;9.252;2022-12-29T04:02:55;10.70;37.50
439;DHT22;206;48.782;9.252;2022-12-29T04:05:21;10.80;37.30
439;DHT22;206;48.782;9.252;2022-12-29T04:07:47;10.80;37.00
439;DHT22;206;48.782;9.252;2022-12-29T04:10:12;10.80;36.80
439;DHT22;206;48.782;9.252;2022-12-29T04:12:38;10.80;36.60
439;DHT22;206;48.782;9.252;2022-12-29T04:15:04;10.80;36.80
439;DHT22;206;48.782;9.252;2022-12-29T04:17:29;10.80;37.00
439;DHT22;206;48.782;9.252;2022-12-29T04:19:55;10.80;37.70
439;DHT22;206;48.782;9.252;2022-12-29T04:22:40;10.80;37.20
439;DHT22;206;48.782;9.252;2022-12-29T04:25:06;10.70;37.50
439;DHT22;206;48.782;9.252;2022-12-29T04:27:32;10.80;38.10
439;DHT22;206;48.782;9.252;2022-12-29T04:29:58;10.80;38.00
439;DHT22;206;48.782;9.252;2022-12-29T04:32:23;10.80;37.90
439;DHT22;206;48.782;9.252;2022-12-29T04:34:50;10.80;38.00
439;DHT22;206;48.782;9.252;2022-12-29T04:37:16;10.80;38.10
439;DHT22;206;48.782;9.252;2022-12-29T04:39:41;10.90;38.00
439;DHT22;206;48.782;9.252;2022-12-29T04:42:07;10.90;38.20
439;DHT22;206;48.782;9.252;2022-12-29T04:44:32;11.00;38.10
439;DHT22;206;48.782;9.252;2022-12-29T04:46:58;10.90;38.30
439;DHT22;206;48.782;9.252;2022-12-29T04:49:23;10.90;38.80
439;DHT22;206;48.782;9.252;2022-12-29T04:51:49;10.90;39.00
439;DHT22;206;48.782;9.252;2022-12-29T04:54:14;11.00;39.00
439;DHT22;206;48.782;9.252;2022-12-29T04:56:40;10.90;39.10
439;DHT22;206;48.782;9.252;2022-12-29T04:59:05;11.00;39.50
439;DHT22;206;48.782;9.252;2022-12-29T05:01:31;10.90;39.60
439;DHT22;206;48.782;9.252;2022-12-29T05:03:57;10.90;39.60
439;DHT22;206;48.782;9.252;2022-12-29T05:06:22;11.00;39.70
439;DHT22;206;48.782;9.252;2022-12-29T05:08:48;11.00;39.90
439;DHT22;206;48.782;9.252;2022-12-29T05:11:13;11.00;40.00
439;DHT22;206;48.782;9.252;2022-12-29T05:13:39;11.00;40.20
439;DHT22;206;48.782;9.252;2022-12-29T05:16:05;11.00;40.20
439;DHT22;206;48.782;9.252;2022-12-29T05:18:30;11.00;40.50
439;DHT22;206;48.782;9.252;2022-12-29T05:20:56;10.90;41.00
439;DHT22;206;48.782;9.252;2022-12-29T05:23:21;11.00;41.00
439;DHT22;206;48.782;9.252;2022-12-29T05:25:47;11.00;40.80
439;DHT22;206;48.782;9.252;2022-12-29T05:28:13;11.00;40.60
439;DHT22;206;48.782;9.252;2022-12-29T05:30:39;11.00;40.80
439;DHT22;206;48.782;9.252;2022-12-29T05:33:04;11.00;40.60
439;DHT22;206;48.782;9.252;2022-12-29T05:35:32;11.00;40.80
439;DHT22;206;48.782;9.252;2022-12-29T05:37:58;10.90;40.90
439;DHT22;206;48.782;9.252;2022-12-29T05:40:23;10.90;41.10
439;DHT22;206;48.782;9.252;2022-12-29T05:42:49;10.90;41.30
439;DHT22;206;48.782;9.252;2022-12-29T05:45:15;10.90;41.50
439;DHT22;206;48.782;9.252;2022-12-29T05:47:40;10.80;41.70
439;DHT22;206;48.782;9.252;2022-12-29T05:50:06;10.80;41.60
439;DHT22;206;48.782;9.252;2022-12-29T05:52:32;10.90;41.20
439;DHT22;206;48.782;9.252;2022-12-29T05:54:57;10.90;40.90
439;DHT22;206;48.782;9.252;2022-12-29T05:57:23;10.80;40.30
439;DHT22;206;48.782;9.252;2022-12-29T05:59:49;10.90;40.10
439;DHT22;206;48.782;9.252;2022-12-29T06:02:14;10.80;39.60
439;DHT22;206;48.782;9.252;2022-12-29T06:04:40;10.80;39.60
439;DHT22;206;48.782;9.252;2022-12-29T06:07:05;10.80;39.70
439;DHT22;206;48.782;9.252;2022-12-29T06:09:31;10.80;40.00
439;DHT22;206;48.782;9.252;2022-12-29T06:11:56;10.80;40.10
439;DHT22;206;48.782;9.252;2022-12-29T06:14:22;10.80;39.50
439;DHT22;206;48.782;9.252;2022-12-29T06:16:47;10.70;38.60
439;DHT22;206;48.782;9.252;2022-12-29T06:19:13;10.70;39.10
439;DHT22;206;48.782;9.252;2022-12-29T06:21:39;10.70;39.00
439;DHT22;206;48.782;9.252;2022-12-29T06:24:05;10.70;39.20
439;DHT22;206;48.782;9.252;2022-12-29T06:26:31;10.70;39.50
439;DHT22;206;48.782;9.252;2022-12-29T06:28:56;10.70;39.50
439;DHT22;206;48.782;9.252;2022-12-29T06:31:22;10.80;39.60
439;DHT22;206;48.782;9.252;2022-12-29T06:33:47;10.80;39.40
439;DHT22;206;48.782;9.252;2022-12-29T06:36:13;10.80;38.60
439;DHT22;206;48.782;9.252;2022-12-29T06:38:38;10.80;38.60
439;DHT22;206;48.782;9.252;2022-12-29T06:41:04;10.80;38.50
439;DHT22;206;48.782;9.252;2022-12-29T06:43:29;10.70;39.00
439;DHT22;206;48.782;9.252;2022-12-29T06:45:56;10.60;38.60
439;DHT22;206;48.782;9.252;2022-12-29T06:48:21;10.70;39.10
439;DHT22;206;48.782;9.252;2022-12-29T06:50:47;10.70;39.00
439;DHT22;206;48.782;9.252;2022-12-29T06:53:12;10.70;39.20
439;DHT22;206;48.782;9.252;2022-12-29T06:55:38;10.70;39.10
439;DHT22;206;48.782;9.252;2022-12-29T06:58:03;10.70;38.90
439;DHT22;206;48.782;9.252;2022-12-29T07:00:29;10.70;38.80
439;DHT22;206;48.782;9.252;2022-12-29T07:02:55;10.60;38.80
439;DHT22;206;48.782;9.252;2022-12-29T07:05:23;10.60;38.60
439;DHT22;206;48.782;9.252;2022-12-29T07:07:50;10.60;38.70
439;DHT22;206;48.782;9.252;2022-12-29T07:10:15;10.60;38.40
439;DHT22;206;48.782;9.252;2022-12-29T07:12:41;10.60;38.50
439;DHT22;206;48.782;9.252;2022-12-29T07:15:07;10.60;38.40
439;DHT22;206;48.782;9.252;2022-12-29T07:17:33;10.60;38.70
439;DHT22;206;48.782;9.252;2022-12-29T07:19:58;10.60;38.90
439;DHT22;206;48.782;9.252;2022-12-29T07:22:24;10.60;38.80
439;DHT22;206;48.782;9.252;2022-12-29T07:24:49;10.60;38.80
439;DHT22;206;48.782;9.252;2022-12-29T07:27:15;10.60;38.80
439;DHT22;206;48.782;9.252;2022-12-29T07:29:40;10.60;38.90
439;DHT22;206;48.782;9.252;2022-12-29T07:32:06;10.60;38.80
439;DHT22;206;48.782;9.252;2022-12-29T07:34:31;10.60;38.80
439;DHT22;206;48.782;9.252;2022-12-29T07:36:57;10.70;38.80
439;DHT22;206;48.782;9.252;2022-12-29T07:39:23;10.70;38.80
439;DHT22;206;48.782;9.252;2022-12-29T07:41:48;10.70;39.00
439;DHT22;206;48.782;9.252;2022-12-29T07:44:14;10.80;38.90
439;DHT22;206;48.782;9.252;2022-12-29T07:46:39;10.80;39.00
439;DHT22;206;48.782;9.252;2022-12-29T07:49:05;10.80;38.80
439;DHT22;206;48.782;9.252;2022-12-29T07:51:30;10.80;39.00
439;DHT22;206;48.782;9.252;2022-12-29T07:53:57;10.80;39.60
439;DHT22;206;48.782;9.252;2022-12-29T07:56:25;10.90;39.10
439;DHT22;206;48.782;9.252;2022-12-29T07:58:51;10.90;39.00
439;DHT22;206;48.782;9.252;2022-12-29T08:01:16;10.90;39.00
439;DHT22;206;48.782;9.252;2022-12-29T08:03:42;11.00;39.20
439;DHT22;206;48.782;9.252;2022-12-29T08:06:11;11.00;38.60
439;DHT22;206;48.782;9.252;2022-12-29T08:08:37;11.10;38.30
439;DHT22;206;48.782;9.252;2022-12-29T08:11:03;11.20;38.20
439;DHT22;206;48.782;9.252;2022-12-29T08:13:29;11.20;38.00
439;DHT22;206;48.782;9.252;2022-12-29T08:15:54;11.30;38.00
439;DHT22;206;48.782;9.252;2022-12-29T08:18:20;11.40;37.80
439;DHT22;206;48.782;9.252;2022-12-29T08:20:45;11.50;37.30
439;DHT22;206;48.782;9.252;2022-12-29T08:23:11;11.60;37.10
439;DHT22;206;48.782;9.252;2022-12-29T08:25:37;11.70;36.50
439;DHT22;206;48.782;9.252;2022-12-29T08:28:02;11.80;36.40
439;DHT22;206;48.782;9.252;2022-12-29T08:30:28;11.90;36.30
439;DHT22;206;48.782;9.252;2022-12-29T08:32:53;12.00;35.70
439;DHT22;206;48.782;9.252;2022-12-29T08:35:19;12.00;35.60
439;DHT22;206;48.782;9.252;2022-12-29T08:37:44;12.10;35.10
439;DHT22;206;48.782;9.252;2022-12-29T08:40:10;12.20;35.00
439;DHT22;206;48.782;9.252;2022-12-29T08:42:36;12.30;34.60
439;DHT22;206;48.782;9.252;2022-12-29T08:45:02;12.40;35.30
439;DHT22;206;48.782;9.252;2022-12-29T08:47:27;12.40;34.60
439;DHT22;206;48.782;9.252;2022-12-29T08:49:53;12.50;34.00
439;DHT22;206;48.782;9.252;2022-12-29T08:52:19;12.60;34.30
439;DHT22;206;48.782;9.252;2022-12-29T08:54:44;12.60;33.90
439;DHT22;206;48.782;9.252;2022-12-29T08:57:10;12.70;34.00
439;DHT22;206;48.782;9.252;2022-12-29T08:59:36;12.70;33.70
439;DHT22;206;48.782;9.252;2022-12-29T09:02:01;12.60;33.60
439;DHT22;206;48.782;9.252;2022-12-29T09:04:27;12.70;33.40
439;DHT22;206;48.782;9.252;2022-12-29T09:06:53;12.70;33.00
439;DHT22;206;48.782;9.252;2022-12-29T09:09:19;12.60;33.00
439;DHT22;206;48.782;9.252;2022-12-29T09:11:45;12.60;32.70
439;DHT22;206;48.782;9.252;2022-12-29T09:14:11;12.60;32.90
439;DHT22;206;48.782;9.252;2022-12-29T09:16:36;12.70;32.70
439;DHT22;206;48.782;9.252;2022-12-29T09:19:03;12.70;32.30
439;DHT22;206;48.782;9.252;2022-12-29T09:21:29;12.80;32.40
439;DHT22;206;48.782;9.252;2022-12-29T09:23:54;12.90;31.30
439;DHT22;206;48.782;9.252;2022-12-29T09:26:20;13.00;31.40
439;DHT22;206;48.782;9.252;2022-12-29T09:28:45;13.10;31.50
439;DHT22;206;48.782;9.252;2022-12-29T09:31:12;13.10;31.00
439;DHT22;206;48.782;9.252;2022-12-29T09:33:38;13.20;30.60
439;DHT22;206;48.782;9.252;2022-12-29T09:36:03;13.20;30.00
439;DHT22;206;48.782;9.252;2022-12-29T09:38:30;13.30;30.20
439;DHT22;206;48.782;9.252;2022-12-29T09:41:11;13.40;30.00
439;DHT22;206;48.782;9.252;2022-12-29T09:46:31;13.50;29.50
439;DHT22;206;48.782;9.252;2022-12-29T09:51:24;13.70;29.10
439;DHT22;206;48.782;9.252;2022-12-29T09:53:58;13.90;29.10
439;DHT22;206;48.782;9.252;2022-12-29T09:56:25;14.00;28.60
439;DHT22;206;48.782;9.252;2022-12-29T09:59:15;14.10;28.10
439;DHT22;206;48.782;9.252;2022-12-29T10:02:05;14.20;28.00
439;DHT22;206;48.782;9.252;2022-12-29T10:04:43;14.50;28.20
439;DHT22;206;48.782;9.252;2022-12-29T10:07:40;14.60;27.60
439;DHT22;206;48.782;9.252;2022-12-29T10:10:40;14.70;27.00
439;DHT22;206;48.782;9.252;2022-12-29T10:13:27;14.60;27.20
439;DHT22;206;48.782;9.252;2022-12-29T10:16:05;14.50;27.10
439;DHT22;206;48.782;9.252;2022-12-29T10:22:19;14.40;28.20
439;DHT22;206;48.782;9.252;2022-12-29T10:24:52;14.40;28.20
439;DHT22;206;48.782;9.252;2022-12-29T10:27:20;14.40;28.20
439;DHT22;206;48.782;9.252;2022-12-29T10:29:55;14.40;28.20
439;DHT22;206;48.782;9.252;2022-12-29T10:32:36;14.50;28.20
439;DHT22;206;48.782;9.252;2022-12-29T10:37:46;14.60;28.30
439;DHT22;206;48.782;9.252;2022-12-29T10:40:30;14.60;28.30
439;DHT22;206;48.782;9.252;2022-12-29T10:42:58;14.60;28.30
439;DHT22;206;48.782;9.252;2022-12-29T10:45:28;14.70;28.40
439;DHT22;206;48.782;9.252;2022-12-29T10:48:09;14.80;28.50
439;DHT22;206;48.782;9.252;2022-12-29T10:50:36;14.90;28.50
439;DHT22;206;48.782;9.252;2022-12-29T10:53:08;15.00;28.50
439;DHT22;206;48.782;9.252;2022-12-29T10:55:41;15.10;28.60
439;DHT22;206;48.782;9.252;2022-12-29T10:58:11;15.20;28.00
439;DHT22;206;48.782;9.252;2022-12-29T11:00:37;15.30;28.00
439;DHT22;206;48.782;9.252;2022-12-29T11:03:35;15.40;27.40
439;DHT22;206;48.782;9.252;2022-12-29T11:06:24;15.50;27.50
439;DHT22;206;48.782;9.252;2022-12-29T11:08:56;15.70;27.00
439;DHT22;206;48.782;9.252;2022-12-29T11:11:42;15.90;26.40
439;DHT22;206;48.782;9.252;2022-12-29T11:14:34;16.00;26.40
439;DHT22;206;48.782;9.252;2022-12-29T11:17:03;16.10;26.50
439;DHT22;206;48.782;9.252;2022-12-29T11:19:31;15.90;26.20
439;DHT22;206;48.782;9.252;2022-12-29T11:22:19;15.90;26.50
439;DHT22;206;48.782;9.252;2022-12-29T11:24:47;15.80;26.90
439;DHT22;206;48.782;9.252;2022-12-29T11:27:16;15.80;27.00
439;DHT22;206;48.782;9.252;2022-12-29T11:29:46;15.60;27.50
439;DHT22;206;48.782;9.252;2022-12-29T11:32:13;15.60;27.50
439;DHT22;206;48.782;9.252;2022-12-29T11:34:42;15.50;27.40
439;DHT22;206;48.782;9.252;2022-12-29T11:37:18;15.40;27.30
439;DHT22;206;48.782;9.252;2022-12-29T11:42:37;15.40;27.50
439;DHT22;206;48.782;9.252;2022-12-29T11:45:22;15.40;27.40
439;DHT22;206;48.782;9.252;2022-12-29T11:47:52;15.30;27.80
439;DHT22;206;48.782;9.252;2022-12-29T11:50:21;15.20;28.70
439;DHT22;206;48.782;9.252;2022-12-29T11:52:48;15.20;28.70
439;DHT22;206;48.782;9.252;2022-12-29T11:55:23;15.10;30.00
439;DHT22;206;48.782;9.252;2022-12-29T11:57:51;15.00;31.00
439;DHT22;206;48.782;9.252;2022-12-29T12:00:23;14.90;31.40
439;DHT22;206;48.782;9.252;2022-12-29T12:03:02;14.80;32.20
439;DHT22;206;48.782;9.252;2022-12-29T12:08:39;14.60;32.10
439;DHT22;206;48.782;9.252;2022-12-29T12:11:14;14.50;33.80
439;DHT22;206;48.782;9.252;2022-12-29T12:14:02;14.50;34.50
439;DHT22;206;48.782;9.252;2022-12-29T12:16:57;14.50;34.90
439;DHT22;206;48.782;9.252;2022-12-29T12:19:32;14.50;33.60
439;DHT22;206;48.782;9.252;2022-12-29T12:22:33;14.50;34.10
439;DHT22;206;48.782;9.252;2022-12-29T12:25:02;14.50;34.30
439;DHT22;206;48.782;9.252;2022-12-29T12:27:39;14.60;34.30
439;DHT22;206;48.782;9.252;2022-12-29T12:30:15;14.60;33.40
439;DHT22;206;48.782;9.252;2022-12-29T12:43:18;14.90;32.50
439;DHT22;206;48.782;9.252;2022-12-29T12:46:00;14.90;32.10
439;DHT22;206;48.782;9.252;2022-12-29T12:57:52;14.70;34.80
439;DHT22;206;48.782;9.252;2022-12-29T13:00:22;14.70;35.50
439;DHT22;206;48.782;9.252;2022-12-29T13:03:13;14.70;35.70
439;DHT22;206;48.782;9.252;2022-12-29T13:08:43;14.70;36.20
439;DHT22;206;48.782;9.252;2022-12-29T13:19:45;14.90;36.40
439;DHT22;206;48.782;9.252;2022-12-29T13:25:04;14.90;36.90
439;DHT22;206;48.782;9.252;2022-12-29T13:27:40;14.80;37.10
439;DHT22;206;48.782;9.252;2022-12-29T13:30:19;14.80;36.80
439;DHT22;206;48.782;9.252;2022-12-29T13:32:57;14.90;37.00
439;DHT22;206;48.782;9.252;2022-12-29T13:35:41;14.90;36.80
439;DHT22;206;48.782;9.252;2022-12-29T13:41:10;14.90;36.50
439;DHT22;206;48.782;9.252;2022-12-29T13:43:39;14.80;36.60
439;DHT22;206;48.782;9.252;2022-12-29T13:46:23;14.70;36.40
439;DHT22;206;48.782;9.252;2022-12-29T13:48:57;14.80;36.00
439;DHT22;206;48.782;9.252;2022-12-29T13:51:24;14.70;36.50
439;DHT22;206;48.782;9.252;2022-12-29T13:56:19;14.60;36.00
439;DHT22;206;48.782;9.252;2022-12-29T14:02:01;14.40;36.60
439;DHT22;206;48.782;9.252;2022-12-29T14:04:29;14.40;37.30
439;DHT22;206;48.782;9.252;2022-12-29T14:07:12;14.30;37.60
439;DHT22;206;48.782;9.252;2022-12-29T14:09:50;14.30;37.60
439;DHT22;206;48.782;9.252;2022-12-29T14:15:05;14.40;37.80
439;DHT22;206;48.782;9.252;2022-12-29T14:17:32;14.40;37.70
439;DHT22;206;48.782;9.252;2022-12-29T14:19:58;14.50;37.80
439;DHT22;206;48.782;9.252;2022-12-29T14:22:25;14.60;37.90
439;DHT22;206;48.782;9.252;2022-12-29T14:24:51;14.60;37.60
439;DHT22;206;48.782;9.252;2022-12-29T14:29:45;14.50;37.80
439;DHT22;206;48.782;9.252;2022-12-29T14:34:46;14.40;37.70
439;DHT22;206;48.782;9.252;2022-12-29T14:37:38;14.30;37.60
439;DHT22;206;48.782;9.252;2022-12-29T14:40:19;14.30;38.20
439;DHT22;206;48.782;9.252;2022-12-29T14:42:46;14.20;38.30
439;DHT22;206;48.782;9.252;2022-12-29T14:47:44;14.20;38.30
439;DHT22;206;48.782;9.252;2022-12-29T14:53:01;14.00;39.50
439;DHT22;206;48.782;9.252;2022-12-29T14:55:46;13.90;39.70
439;DHT22;206;48.782;9.252;2022-12-29T15:00:42;13.80;40.30
439;DHT22;206;48.782;9.252;2022-12-29T15:03:25;13.80;40.60
439;DHT22;206;48.782;9.252;2022-12-29T15:05:56;13.80;40.60
439;DHT22;206;48.782;9.252;2022-12-29T15:08:26;13.80;41.00
439;DHT22;206;48.782;9.252;2022-12-29T15:10:57;13.70;40.90
439;DHT22;206;48.782;9.252;2022-12-29T15:13:34;13.60;41.20
439;DHT22;206;48.782;9.252;2022-12-29T15:16:00;13.60;41.40
439;DHT22;206;48.782;9.252;2022-12-29T15:18:30;13.60;41.30
439;DHT22;206;48.782;9.252;2022-12-29T15:20:58;13.50;41.80
439;DHT22;206;48.782;9.252;2022-12-29T15:23:25;13.40;41.60
439;DHT22;206;48.782;9.252;2022-12-29T15:26:02;13.40;41.90
439;DHT22;206;48.782;9.252;2022-12-29T15:28:38;13.30;42.30
439;DHT22;206;48.782;9.252;2022-12-29T15:31:06;13.30;42.70
439;DHT22;206;48.782;9.252;2022-12-29T15:33:38;13.30;42.30
439;DHT22;206;48.782;9.252;2022-12-29T15:36:14;13.20;42.60
439;DHT22;206;48.782;9.252;2022-12-29T15:38:40;13.20;42.40
439;DHT22;206;48.782;9.252;2022-12-29T15:46:33;13.30;42.20
439;DHT22;206;48.782;9.252;2022-12-29T15:48:58;13.30;41.70
439;DHT22;206;48.782;9.252;2022-12-29T15:51:36;13.30;41.50
439;DHT22;206;48.782;9.252;2022-12-29T15:54:03;13.30;41.80
439;DHT22;206;48.782;9.252;2022-12-29T15:56:30;13.40;41.40
439;DHT22;206;48.782;9.252;2022-12-29T15:58:56;13.40;41.30
439;DHT22;206;48.782;9.252;2022-12-29T16:01:42;13.40;41.10
439;DHT22;206;48.782;9.252;2022-12-29T16:04:09;13.40;40.60
439;DHT22;206;48.782;9.252;2022-12-29T16:06:39;13.30;41.80
439;DHT22;206;48.782;9.252;2022-12-29T16:09:17;13.20;43.60
439;DHT22;206;48.782;9.252;2022-12-29T16:14:18;12.90;47.90
439;DHT22;206;48.782;9.252;2022-12-29T16:16:45;12.80;48.20
439;DHT22;206;48.782;9.252;2022-12-29T16:19:15;12.70;48.70
439;DHT22;206;48.782;9.252;2022-12-29T16:21:44;12.60;48.10
439;DHT22;206;48.782;9.252;2022-12-29T16:24:16;12.60;49.60
439;DHT22;206;48.782;9.252;2022-12-29T16:26:53;12.60;49.00
439;DHT22;206;48.782;9.252;2022-12-29T16:29:21;12.50;49.00
439;DHT22;206;48.782;9.252;2022-12-29T16:31:54;12.50;49.60
439;DHT22;206;48.782;9.252;2022-12-29T16:37:04;12.30;49.90
439;DHT22;206;48.782;9.252;2022-12-29T16:39:35;12.30;50.90
439;DHT22;206;48.782;9.252;2022-12-29T16:42:32;12.30;50.10
439;DHT22;206;48.782;9.252;2022-12-29T16:44:47;12.30;50.40
439;DHT22;206;48.782;9.252;2022-12-29T16:49:40;12.30;50.60
439;DHT22;206;48.782;9.252;2022-12-29T16:52:17;12.30;50.60
439;DHT22;206;48.782;9.252;2022-12-29T16:54:51;12.30;50.60
439;DHT22;206;48.782;9.252;2022-12-29T16:57:27;12.30;51.40
439;DHT22;206;48.782;9.252;2022-12-29T16:59:57;12.40;52.10
439;DHT22;206;48.782;9.252;2022-12-29T17:02:26;12.40;52.70
439;DHT22;206;48.782;9.252;2022-12-29T17:04:53;12.40;53.20
439;DHT22;206;48.782;9.252;2022-12-29T17:07:26;12.40;53.30
439;DHT22;206;48.782;9.252;2022-12-29T17:09:53;12.40;53.50
439;DHT22;206;48.782;9.252;2022-12-29T17:12:26;12.40;54.40
439;DHT22;206;48.782;9.252;2022-12-29T17:14:58;12.40;55.50
439;DHT22;206;48.782;9.252;2022-12-29T17:17:36;12.40;55.50
439;DHT22;206;48.782;9.252;2022-12-29T17:20:24;12.40;55.70
439;DHT22;206;48.782;9.252;2022-12-29T17:22:50;12.40;55.50
439;DHT22;206;48.782;9.252;2022-12-29T17:25:20;12.40;58.00
439;DHT22;206;48.782;9.252;2022-12-29T17:27:51;12.40;57.80
439;DHT22;206;48.782;9.252;2022-12-29T17:30:20;12.30;58.00
439;DHT22;206;48.782;9.252;2022-12-29T17:33:05;12.20;58.60
439;DHT22;206;48.782;9.252;2022-12-29T17:35:30;12.20;58.80
439;DHT22;206;48.782;9.252;2022-12-29T17:37:56;12.20;59.10
439;DHT22;206;48.782;9.252;2022-12-29T17:40:26;12.10;59.90
439;DHT22;206;48.782;9.252;2022-12-29T17:42:54;12.10;60.70
439;DHT22;206;48.782;9.252;2022-12-29T17:45:29;12.10;61.20
439;DHT22;206;48.782;9.252;2022-12-29T17:47:56;12.10;61.80
439;DHT22;206;48.782;9.252;2022-12-29T17:50:25;12.10;62.70
439;DHT22;206;48.782;9.252;2022-12-29T17:52:57;12.10;61.30
439;DHT22;206;48.782;9.252;2022-12-29T17:55:24;12.10;61.50
439;DHT22;206;48.782;9.252;2022-12-29T17:57:51;12.10;61.70
439;DHT22;206;48.782;9.252;2022-12-29T18:00:19;12.10;62.00
439;DHT22;206;48.782;9.252;2022-12-29T18:02:45;12.00;61.40
439;DHT22;206;48.782;9.252;2022-12-29T18:07:52;11.90;63.60
439;DHT22;206;48.782;9.252;2022-12-29T18:10:19;11.90;64.70
439;DHT22;206;48.782;9.252;2022-12-29T18:12:46;11.80;65.10
439;DHT22;206;48.782;9.252;2022-12-29T18:15:19;11.80;65.60
439;DHT22;206;48.782;9.252;2022-12-29T18:17:46;11.80;66.40
439;DHT22;206;48.782;9.252;2022-12-29T18:20:12;11.70;66.50
439;DHT22;206;48.782;9.252;2022-12-29T18:22:38;11.70;66.10
439;DHT22;206;48.782;9.252;2022-12-29T18:25:39;11.60;67.00
439;DHT22;206;48.782;9.252;2022-12-29T18:28:06;11.50;65.70
439;DHT22;206;48.782;9.252;2022-12-29T18:30:32;11.40;64.20
439;DHT22;206;48.782;9.252;2022-12-29T18:32:57;11.30;65.50
439;DHT22;206;48.782;9.252;2022-12-29T18:37:55;11.20;70.50
439;DHT22;206;48.782;9.252;2022-12-29T18:40:20;11.20;72.60
439;DHT22;206;48.782;9.252;2022-12-29T18:42:46;11.20;73.90
439;DHT22;206;48.782;9.252;2022-12-29T18:45:20;11.20;73.90
439;DHT22;206;48.782;9.252;2022-12-29T18:47:46;11.10;74.10
439;DHT22;206;48.782;9.252;2022-12-29T18:50:12;11.10;74.50
439;DHT22;206;48.782;9.252;2022-12-29T18:52:38;11.10;75.90
439;DHT22;206;48.782;9.252;2022-12-29T18:55:08;11.10;75.70